createdAt,value
2018-10-05T00:00:25.789Z,101804.53
2018-10-05T00:02:53.924Z,101807.88
2018-10-05T00:05:22.113Z,101804.61
2018-10-05T00:07:50.274Z,101798.73
2018-10-05T00:10:18.376Z,101806.94
2018-10-05T00:12:46.528Z,101799.98
2018-10-05T00:15:14.624Z,101806.23
2018-10-05T00:17:42.736Z,101808.72
2018-10-05T00:20:10.845Z,101801.69
2018-10-05T00:22:38.948Z,101800.06
2018-10-05T00:25:07.033Z,101803.30
2018-10-05T00:27:35.169Z,101809.25
2018-10-05T00:30:04.324Z,101806.41
2018-10-05T00:32:32.594Z,101811.88
2018-10-05T00:35:00.625Z,101806.70
2018-10-05T00:37:28.772Z,101799.34
2018-10-05T00:39:56.888Z,101802.13
2018-10-05T00:42:25.049Z,101798.91
2018-10-05T00:44:53.170Z,101790.39
2018-10-05T00:47:21.316Z,101796.89
2018-10-05T00:49:49.460Z,101791.00
2018-10-05T00:52:17.588Z,101779.10
2018-10-05T00:54:45.705Z,101784.06
2018-10-05T00:57:13.890Z,101780.58
2018-10-05T00:59:42.279Z,101778.18
2018-10-05T01:02:10.408Z,101775.56
2018-10-05T01:04:38.659Z,101775.95
2018-10-05T01:07:06.836Z,101781.67
2018-10-05T01:09:34.922Z,101775.88
2018-10-05T01:12:03.264Z,101783.77
2018-10-05T01:14:31.416Z,101782.21
2018-10-05T01:16:59.565Z,101779.75
2018-10-05T01:19:27.697Z,101786.94
2018-10-05T01:21:55.799Z,101783.06
2018-10-05T01:24:23.911Z,101784.14
2018-10-05T01:26:52.037Z,101788.00
2018-10-05T01:29:20.172Z,101779.88
2018-10-05T01:31:48.491Z,101790.08
2018-10-05T01:34:16.652Z,101785.05
2018-10-05T01:36:44.756Z,101784.83
2018-10-05T01:39:12.872Z,101784.97
2018-10-05T01:41:41.034Z,101783.67
2018-10-05T01:44:09.173Z,101787.00
2018-10-05T01:46:37.290Z,101781.72
2018-10-05T01:49:05.401Z,101783.35
2018-10-05T01:51:37.383Z,101775.86
2018-10-05T01:54:06.190Z,101778.78
2018-10-05T01:56:34.984Z,101772.22
2018-10-05T01:59:03.271Z,101775.13
2018-10-05T02:01:31.847Z,101774.71
2018-10-05T02:03:59.996Z,101779.93
2018-10-05T02:06:28.189Z,101779.15
2018-10-05T02:08:56.292Z,101771.05
2018-10-05T02:11:24.408Z,101773.30
2018-10-05T02:13:52.518Z,101769.17
2018-10-05T02:16:20.624Z,101762.69
2018-10-05T02:18:48.741Z,101760.45
2018-10-05T02:21:16.845Z,101753.42
2018-10-05T02:23:45.241Z,101743.88
2018-10-05T02:26:13.384Z,101745.83
2018-10-05T02:28:41.485Z,101750.12
2018-10-05T02:31:09.618Z,101744.09
2018-10-05T02:33:37.742Z,101743.34
2018-10-05T02:36:06.384Z,101734.25
2018-10-05T02:38:34.512Z,101739.41
2018-10-05T02:41:03.144Z,101743.36
2018-10-05T02:43:31.261Z,101743.15
2018-10-05T02:45:59.361Z,101745.18
2018-10-05T02:48:27.481Z,101736.98
2018-10-05T02:50:55.598Z,101744.39
2018-10-05T02:53:23.713Z,101738.91
2018-10-05T02:55:51.837Z,101734.95
2018-10-05T02:58:20.073Z,101737.06
2018-10-05T03:00:59.737Z,101731.20
2018-10-05T03:03:27.868Z,101729.56
2018-10-05T03:05:56.046Z,101728.05
2018-10-05T03:08:24.150Z,101724.71
2018-10-05T03:10:52.259Z,101715.60
2018-10-05T03:13:20.404Z,101720.22
2018-10-05T03:15:48.524Z,101721.40
2018-10-05T03:18:16.639Z,101721.75
2018-10-05T03:20:44.724Z,101719.82
2018-10-05T03:23:12.820Z,101715.83
2018-10-05T03:25:40.950Z,101708.35
2018-10-05T03:28:09.052Z,101713.45
2018-10-05T03:30:37.195Z,101708.73
2018-10-05T03:33:05.343Z,101708.02
2018-10-05T03:35:33.465Z,101702.65
2018-10-05T03:38:01.564Z,101706.12
2018-10-05T03:40:29.696Z,101711.36
2018-10-05T03:42:57.801Z,101706.05
2018-10-05T03:45:25.900Z,101712.47
2018-10-05T03:47:54.037Z,101703.58
2018-10-05T03:50:22.129Z,101704.83
2018-10-05T03:52:50.199Z,101704.56
2018-10-05T03:55:18.340Z,101703.77
2018-10-05T03:57:46.459Z,101699.57
2018-10-05T04:00:14.773Z,101695.06
2018-10-05T04:02:42.998Z,101694.46
2018-10-05T04:05:11.265Z,101695.50
2018-10-05T04:07:39.436Z,101690.36
2018-10-05T04:10:07.598Z,101691.73
2018-10-05T04:12:35.780Z,101692.64
2018-10-05T04:15:03.872Z,101697.42
2018-10-05T04:17:31.977Z,101694.53
2018-10-05T04:20:00.100Z,101695.58
2018-10-05T04:22:30.571Z,101697.92
2018-10-05T04:24:58.741Z,101690.25
2018-10-05T04:27:26.970Z,101688.23
2018-10-05T04:29:55.967Z,101684.44
2018-10-05T04:32:24.073Z,101689.91
2018-10-05T04:34:52.177Z,101696.12
2018-10-05T04:37:20.347Z,101697.70
2018-10-05T04:39:48.464Z,101695.30
2018-10-05T04:42:16.584Z,101696.00
2018-10-05T04:44:44.689Z,101694.17
2018-10-05T04:47:13.080Z,101696.06
2018-10-05T04:49:41.260Z,101697.77
2018-10-05T04:52:09.372Z,101694.17
2018-10-05T04:54:37.494Z,101692.47
2018-10-05T04:57:05.627Z,101691.95
2018-10-05T04:59:33.756Z,101689.91
2018-10-05T05:02:02.052Z,101687.23
2018-10-05T05:04:30.192Z,101682.52
2018-10-05T05:06:58.512Z,101687.94
2018-10-05T05:09:26.673Z,101687.54
2018-10-05T05:11:54.783Z,101688.78
2018-10-05T05:14:22.941Z,101689.23
2018-10-05T05:16:51.042Z,101691.28
2018-10-05T05:19:19.160Z,101690.03
2018-10-05T05:21:47.304Z,101689.52
2018-10-05T05:24:15.404Z,101692.77
2018-10-05T05:26:43.553Z,101690.48
2018-10-05T05:29:11.684Z,101693.85
2018-10-05T05:31:39.796Z,101699.60
2018-10-05T05:34:07.982Z,101699.77
2018-10-05T05:36:36.100Z,101701.29
2018-10-05T05:39:05.652Z,101698.22
2018-10-05T05:41:33.765Z,101696.35
2018-10-05T05:44:01.889Z,101701.53
2018-10-05T05:46:30.000Z,101707.84
2018-10-05T05:48:58.149Z,101702.61
2018-10-05T05:51:26.344Z,101696.92
2018-10-05T05:53:54.559Z,101700.85
2018-10-05T05:56:22.640Z,101699.77
2018-10-05T05:58:50.793Z,101697.84
2018-10-05T06:01:18.931Z,101696.92
2018-10-05T06:03:47.089Z,101695.10
2018-10-05T06:06:15.222Z,101690.78
2018-10-05T06:08:43.335Z,101690.45
2018-10-05T06:11:11.481Z,101693.34
2018-10-05T06:13:39.623Z,101694.52
2018-10-05T06:16:07.776Z,101698.90
2018-10-05T06:18:35.896Z,101698.39
2018-10-05T06:21:04.025Z,101700.16
2018-10-05T06:23:32.137Z,101707.49
2018-10-05T06:26:00.267Z,101706.31
2018-10-05T06:28:28.365Z,101704.37
2018-10-05T06:30:56.641Z,101712.04
2018-10-05T06:33:24.710Z,101711.80
2018-10-05T06:35:52.753Z,101719.38
2018-10-05T06:38:20.909Z,101722.91
2018-10-05T06:40:49.049Z,101719.31
2018-10-05T06:43:17.164Z,101725.50
2018-10-05T06:45:45.278Z,101723.41
2018-10-05T06:48:13.396Z,101724.14
2018-10-05T06:50:41.550Z,101723.60
2018-10-05T06:53:09.684Z,101722.50
2018-10-05T06:55:37.787Z,101723.48
2018-10-05T06:58:05.985Z,101723.08
2018-10-05T07:00:34.124Z,101725.25
2018-10-05T07:03:02.223Z,101721.40
2018-10-05T07:05:30.351Z,101721.44
2018-10-05T07:07:58.517Z,101716.78
2018-10-05T07:10:26.645Z,101721.85
2018-10-05T07:12:54.741Z,101719.10
2018-10-05T07:15:22.857Z,101722.97
2018-10-05T07:17:51.073Z,101716.79
2018-10-05T07:20:19.200Z,101711.61
2018-10-05T07:22:47.373Z,101713.18
2018-10-05T07:25:15.504Z,101714.23
2018-10-05T07:27:43.626Z,101710.83
2018-10-05T07:30:11.721Z,101711.41
2018-10-05T07:32:39.838Z,101709.85
2018-10-05T07:35:07.985Z,101715.92
2018-10-05T07:37:36.073Z,101714.61
2018-10-05T07:40:04.168Z,101714.72
2018-10-05T07:42:32.276Z,101711.31
2018-10-05T07:45:00.408Z,101711.42
2018-10-05T07:47:28.530Z,101712.91
2018-10-05T07:49:56.659Z,101707.09
2018-10-05T07:52:24.861Z,101712.52
2018-10-05T07:54:52.968Z,101711.97
2018-10-05T07:57:21.162Z,101710.81
2018-10-05T07:59:49.217Z,101713.18
2018-10-05T08:02:17.327Z,101710.09
2018-10-05T08:04:45.425Z,101707.78
2018-10-05T08:07:13.547Z,101709.70
2018-10-05T08:09:41.718Z,101714.80
2018-10-05T08:12:09.768Z,101712.41
2018-10-05T08:14:37.924Z,101711.95
2018-10-05T08:17:06.092Z,101703.52
2018-10-05T08:19:34.224Z,101705.97
2018-10-05T08:22:02.432Z,101706.00
2018-10-05T08:24:30.585Z,101705.46
2018-10-05T08:26:58.783Z,101704.15
2018-10-05T08:29:26.885Z,101700.92
2018-10-05T08:31:55.008Z,101694.89
2018-10-05T08:34:23.149Z,101690.19
2018-10-05T08:36:51.644Z,101690.54
2018-10-05T08:39:19.757Z,101688.07
2018-10-05T08:41:47.918Z,101686.54
2018-10-05T08:44:16.061Z,101694.58
2018-10-05T08:46:44.163Z,101686.33
2018-10-05T08:49:12.317Z,101691.11
2018-10-05T08:51:40.461Z,101693.16
2018-10-05T08:54:08.763Z,101683.52
2018-10-05T08:56:36.961Z,101685.69
2018-10-05T08:59:05.112Z,101685.95
2018-10-05T09:01:33.209Z,101681.20
2018-10-05T09:04:01.336Z,101681.32
2018-10-05T09:06:29.653Z,101682.17
2018-10-05T09:08:57.797Z,101677.63
2018-10-05T09:11:25.946Z,101670.23
2018-10-05T09:13:54.199Z,101667.15
2018-10-05T09:16:22.255Z,101665.18
2018-10-05T09:18:50.368Z,101664.91
2018-10-05T09:21:18.478Z,101657.46
2018-10-05T09:23:46.609Z,101656.23
2018-10-05T09:26:14.733Z,101660.28
2018-10-05T09:28:42.881Z,101658.88
2018-10-05T09:31:11.004Z,101653.11
2018-10-05T09:33:39.100Z,101654.50
2018-10-05T09:36:07.213Z,101648.69
2018-10-05T09:38:35.344Z,101657.23
2018-10-05T09:41:03.445Z,101651.30
2018-10-05T09:43:31.572Z,101654.74
2018-10-05T09:45:59.665Z,101645.40
2018-10-05T09:48:27.757Z,101645.88
2018-10-05T09:50:55.857Z,101641.34
2018-10-05T09:53:23.980Z,101637.20
2018-10-05T09:55:52.118Z,101633.34
2018-10-05T09:58:20.269Z,101637.32
2018-10-05T10:00:53.857Z,101632.06
2018-10-05T10:03:37.023Z,101630.86
2018-10-05T10:06:05.950Z,101628.94
2018-10-05T10:08:34.071Z,101619.63
2018-10-05T10:11:02.169Z,101617.71
2018-10-05T10:13:30.289Z,101612.22
2018-10-05T10:15:58.433Z,101611.75
2018-10-05T10:18:26.514Z,101618.73
2018-10-05T10:20:54.621Z,101618.09
2018-10-05T10:23:22.865Z,101616.56
2018-10-05T10:25:50.813Z,101614.66
2018-10-05T10:28:18.983Z,101611.06
2018-10-05T10:30:47.024Z,101610.48
2018-10-05T10:33:15.116Z,101613.66
2018-10-05T10:35:43.228Z,101613.64
2018-10-05T10:38:11.360Z,101602.86
2018-10-05T10:40:39.468Z,101597.63
2018-10-05T10:43:07.802Z,101591.18
2018-10-05T10:45:36.027Z,101589.11
2018-10-05T10:48:04.197Z,101592.98
2018-10-05T10:50:32.269Z,101586.41
2018-10-05T10:53:00.453Z,101584.69
2018-10-05T10:55:28.532Z,101578.88
2018-10-05T10:57:56.693Z,101574.23
2018-10-05T11:00:24.808Z,101574.28
2018-10-05T11:02:52.937Z,101571.56
2018-10-05T11:05:21.064Z,101577.13
2018-10-05T11:07:49.175Z,101572.16
2018-10-05T11:10:17.331Z,101567.50
2018-10-05T11:12:45.470Z,101565.67
2018-10-05T11:15:13.584Z,101565.63
2018-10-05T11:17:41.756Z,101562.66
2018-10-05T11:20:09.868Z,101558.13
2018-10-05T11:22:37.957Z,101556.08
2018-10-05T11:25:06.068Z,101548.31
2018-10-05T11:27:34.197Z,101542.90
2018-10-05T11:30:02.374Z,101548.45
2018-10-05T11:32:30.496Z,101542.05
2018-10-05T11:34:58.674Z,101537.74
2018-10-05T11:37:26.731Z,101531.61
2018-10-05T11:39:54.869Z,101532.69
2018-10-05T11:42:22.997Z,101529.47
2018-10-05T11:44:51.103Z,101520.56
2018-10-05T11:47:19.224Z,101516.34
2018-10-05T11:49:47.321Z,101515.98
2018-10-05T11:52:15.481Z,101511.88
2018-10-05T11:54:43.821Z,101503.33
2018-10-05T11:57:11.964Z,101496.91
2018-10-05T11:59:40.130Z,101491.00
2018-10-05T12:02:08.218Z,101492.69
2018-10-05T12:04:36.376Z,101491.14
2018-10-05T12:07:04.516Z,101480.30
2018-10-05T12:09:32.644Z,101477.01
2018-10-05T12:12:00.784Z,101468.11
2018-10-05T12:14:28.910Z,101464.98
2018-10-05T12:16:57.032Z,101462.81
2018-10-05T12:19:25.145Z,101461.33
2018-10-05T12:21:53.294Z,101455.20
2018-10-05T12:24:21.402Z,101455.16
2018-10-05T12:26:49.509Z,101449.08
2018-10-05T12:29:17.676Z,101440.02
2018-10-05T12:31:45.794Z,101438.69
2018-10-05T12:34:13.901Z,101433.27
2018-10-05T12:36:42.024Z,101428.33
2018-10-05T12:39:10.152Z,101424.33
2018-10-05T12:41:38.769Z,101411.31
2018-10-05T12:44:07.460Z,101411.55
2018-10-05T12:46:35.960Z,101403.91
2018-10-05T12:49:04.073Z,101409.68
2018-10-05T12:51:32.203Z,101398.06
2018-10-05T12:54:00.314Z,101397.39
2018-10-05T12:56:28.551Z,101407.79
2018-10-05T12:58:56.641Z,101395.30
2018-10-05T13:01:24.795Z,101399.03
2018-10-05T13:03:52.924Z,101389.35
2018-10-05T13:06:21.061Z,101384.03
2018-10-05T13:08:49.181Z,101385.69
2018-10-05T13:11:17.289Z,101377.66
2018-10-05T13:13:45.405Z,101368.00
2018-10-05T13:16:13.553Z,101372.15
2018-10-05T13:18:41.683Z,101360.39
2018-10-05T13:21:09.774Z,101365.34
2018-10-05T13:28:35.550Z,101349.89
2018-10-05T13:31:03.662Z,101350.25
2018-10-05T13:33:31.857Z,101338.94
2018-10-05T13:35:59.989Z,101343.47
2018-10-05T13:38:28.101Z,101339.42
2018-10-05T13:40:56.221Z,101344.16
2018-10-05T13:43:25.007Z,101336.97
2018-10-05T13:45:53.210Z,101335.02
2018-10-05T13:48:21.520Z,101337.88
2018-10-05T13:50:49.650Z,101341.02
2018-10-05T13:53:17.812Z,101339.49
2018-10-05T13:55:45.958Z,101340.34
2018-10-05T13:58:14.135Z,101329.97
2018-10-05T14:00:42.304Z,101322.36
2018-10-05T14:03:10.472Z,101317.23
2018-10-05T14:05:38.628Z,101315.91
2018-10-05T14:08:06.769Z,101317.14
2018-10-05T14:10:35.010Z,101309.97
2018-10-05T14:13:03.060Z,101310.69
2018-10-05T14:15:31.224Z,101303.50
2018-10-05T14:17:59.410Z,101299.03
2018-10-05T14:20:27.572Z,101295.70
2018-10-05T14:22:55.885Z,101293.97
2018-10-05T14:25:24.174Z,101292.22
2018-10-05T14:27:52.308Z,101292.42
2018-10-05T14:30:20.460Z,101291.70
2018-10-05T14:32:48.605Z,101291.06
2018-10-05T14:35:16.732Z,101286.84
2018-10-05T14:37:44.865Z,101278.03
2018-10-05T14:40:12.963Z,101276.48
2018-10-05T14:42:41.069Z,101275.42
2018-10-05T14:45:09.215Z,101272.31
2018-10-05T14:47:37.337Z,101273.02
2018-10-05T14:50:05.479Z,101265.38
2018-10-05T14:52:33.590Z,101261.98
2018-10-05T14:55:01.744Z,101264.63
2018-10-05T14:57:29.948Z,101263.02
2018-10-05T14:59:58.088Z,101259.37
2018-10-05T15:02:26.181Z,101248.56
2018-10-05T15:04:54.332Z,101246.94
2018-10-05T15:07:22.468Z,101246.04
2018-10-05T15:09:50.587Z,101239.11
2018-10-05T15:12:18.719Z,101234.94
2018-10-05T15:14:46.840Z,101230.92
2018-10-05T15:17:14.989Z,101225.38
2018-10-05T15:19:43.093Z,101228.72
2018-10-05T15:22:11.284Z,101227.33
2018-10-05T15:24:39.630Z,101223.80
2018-10-05T15:27:08.233Z,101217.80
2018-10-05T15:29:36.344Z,101212.91
2018-10-05T15:32:05.009Z,101215.20
2018-10-05T15:34:33.527Z,101211.42
2018-10-05T15:37:01.853Z,101209.34
2018-10-05T15:39:30.796Z,101204.75
2018-10-05T15:41:59.020Z,101203.41
2018-10-05T15:44:27.333Z,101199.20
2018-10-05T15:46:58.474Z,101202.16
2018-10-05T15:49:26.756Z,101202.08
2018-10-05T15:51:54.993Z,101196.54
2018-10-05T15:54:23.157Z,101205.55
2018-10-05T15:56:51.710Z,101203.48
2018-10-05T15:59:19.889Z,101196.02
2018-10-05T16:01:48.065Z,101191.78
2018-10-05T16:04:16.673Z,101193.42
2018-10-05T16:06:44.968Z,101194.03
2018-10-05T16:09:13.203Z,101192.96
2018-10-05T16:11:41.433Z,101186.80
2018-10-05T16:14:09.845Z,101193.37
2018-10-05T16:16:38.173Z,101190.61
2018-10-05T16:19:06.946Z,101175.81
2018-10-05T16:21:36.008Z,101181.51
2018-10-05T16:24:06.802Z,101176.13
2018-10-05T16:26:34.989Z,101168.89
2018-10-05T16:29:03.196Z,101179.36
2018-10-05T16:31:31.357Z,101178.42
2018-10-05T16:33:59.508Z,101178.52
2018-10-05T16:36:27.605Z,101176.49
2018-10-05T16:38:55.696Z,101176.96
2018-10-05T16:41:23.813Z,101178.29
2018-10-05T16:43:52.045Z,101171.47
2018-10-05T16:46:20.287Z,101173.88
2018-10-05T16:48:48.440Z,101173.22
2018-10-05T16:51:16.576Z,101170.78
2018-10-05T16:53:44.717Z,101165.77
2018-10-05T16:56:12.846Z,101173.08
2018-10-05T16:58:40.974Z,101167.28
2018-10-05T17:01:09.123Z,101167.03
2018-10-05T17:03:37.252Z,101169.41
2018-10-05T17:06:05.349Z,101163.92
2018-10-05T17:08:36.052Z,101165.18
2018-10-05T17:11:04.229Z,101165.09
2018-10-05T17:13:32.385Z,101160.21
2018-10-05T17:16:00.513Z,101166.44
2018-10-05T17:18:28.621Z,101159.80
2018-10-05T17:20:56.713Z,101163.73
2018-10-05T17:23:24.872Z,101168.58
2018-10-05T17:25:52.932Z,101164.94
2018-10-05T17:28:21.077Z,101167.98
2018-10-05T17:30:49.257Z,101166.74
2018-10-05T17:33:17.380Z,101168.48
2018-10-05T17:35:45.572Z,101171.66
2018-10-05T17:38:13.705Z,101167.47
2018-10-05T17:40:41.805Z,101172.53
2018-10-05T17:43:09.924Z,101168.81
2018-10-05T17:45:38.050Z,101162.38
2018-10-05T17:48:06.521Z,101157.20
2018-10-05T17:50:34.672Z,101162.86
2018-10-05T17:53:02.765Z,101157.49
2018-10-05T17:55:30.994Z,101159.84
2018-10-05T17:57:59.033Z,101162.84
2018-10-05T18:00:27.171Z,101148.94
2018-10-05T18:02:55.352Z,101144.95
2018-10-05T18:05:23.661Z,101145.23
2018-10-05T18:07:51.955Z,101140.81
2018-10-05T18:10:20.849Z,101140.06
2018-10-05T18:12:49.192Z,101135.17
2018-10-05T18:15:17.702Z,101134.59
2018-10-05T18:17:45.824Z,101133.76
2018-10-05T18:20:13.986Z,101135.28
2018-10-05T18:22:42.089Z,101127.86
2018-10-05T18:25:10.226Z,101120.09
2018-10-05T18:27:38.380Z,101119.61
2018-10-05T18:30:06.552Z,101122.06
2018-10-05T18:32:34.666Z,101121.97
2018-10-05T18:35:02.793Z,101120.74
2018-10-05T18:37:30.958Z,101118.34
2018-10-05T18:39:59.064Z,101120.22
2018-10-05T18:42:27.184Z,101119.31
2018-10-05T18:44:55.296Z,101116.95
2018-10-05T18:47:23.426Z,101115.55
2018-10-05T18:49:51.564Z,101109.53
2018-10-05T18:52:19.672Z,101105.89
2018-10-05T18:54:47.781Z,101102.89
2018-10-05T18:57:19.761Z,101109.73
2018-10-05T18:59:47.853Z,101100.94
2018-10-05T19:02:16.728Z,101107.03
2018-10-05T19:04:45.500Z,101104.86
2018-10-05T19:07:13.585Z,101100.28
2018-10-05T19:09:41.724Z,101090.50
2018-10-05T19:12:09.938Z,101096.22
2018-10-05T19:14:38.048Z,101095.56
2018-10-05T19:17:06.201Z,101095.96
2018-10-05T19:19:34.594Z,101089.73
2018-10-05T19:22:02.724Z,101097.44
2018-10-05T19:24:30.965Z,101088.52
2018-10-05T19:26:59.151Z,101085.15
2018-10-05T19:29:27.733Z,101087.69
2018-10-05T19:31:55.876Z,101086.27
2018-10-05T19:34:24.001Z,101088.14
2018-10-05T19:36:52.109Z,101086.57
2018-10-05T19:39:20.210Z,101082.61
2018-10-05T19:41:48.318Z,101082.17
2018-10-05T19:44:16.404Z,101077.21
2018-10-05T19:46:44.495Z,101075.66
2018-10-05T19:49:12.581Z,101068.66
2018-10-05T19:51:40.668Z,101061.24
2018-10-05T19:54:08.781Z,101064.73
2018-10-05T19:56:36.898Z,101063.63
2018-10-05T19:59:05.008Z,101068.59
2018-10-05T20:01:33.138Z,101065.67
2018-10-05T20:04:01.284Z,101063.43
2018-10-05T20:06:29.483Z,101064.45
2018-10-05T20:08:57.548Z,101066.49
2018-10-05T20:11:25.695Z,101057.39
2018-10-05T20:13:54.006Z,101052.70
2018-10-05T20:16:22.118Z,101053.92
2018-10-05T20:18:50.240Z,101049.52
2018-10-05T20:21:18.340Z,101051.30
2018-10-05T20:23:46.442Z,101046.98
2018-10-05T20:26:14.553Z,101050.28
2018-10-05T20:28:42.664Z,101044.72
2018-10-05T20:31:10.772Z,101039.06
2018-10-05T20:33:38.869Z,101039.73
2018-10-05T20:36:07.068Z,101037.58
2018-10-05T20:38:35.156Z,101031.19
2018-10-05T20:41:03.157Z,101035.55
2018-10-05T20:43:31.279Z,101029.67
2018-10-05T20:45:59.396Z,101029.09
2018-10-05T20:48:27.553Z,101031.03
2018-10-05T20:50:55.664Z,101035.09
2018-10-05T20:53:23.804Z,101029.46
2018-10-05T20:55:51.936Z,101026.63
2018-10-05T20:58:20.066Z,101024.39
2018-10-05T21:00:48.187Z,101017.78
2018-10-05T21:03:16.307Z,101019.50
2018-10-05T21:05:44.424Z,101012.63
2018-10-05T21:08:12.544Z,101019.50
2018-10-05T21:10:40.746Z,101009.53
2018-10-05T21:13:12.103Z,101007.17
2018-10-05T21:15:40.231Z,101005.01
2018-10-05T21:18:08.428Z,100997.91
2018-10-05T21:20:36.533Z,100996.06
2018-10-05T21:23:04.912Z,100993.25
2018-10-05T21:25:33.026Z,100987.64
2018-10-05T21:28:01.136Z,100985.76
2018-10-05T21:30:29.242Z,100988.02
2018-10-05T21:32:57.478Z,100992.23
2018-10-05T21:35:25.568Z,100989.78
2018-10-05T21:37:53.644Z,100987.14
2018-10-05T21:40:21.820Z,100982.39
2018-10-05T21:42:49.948Z,100979.94
2018-10-05T21:45:18.061Z,100974.61
2018-10-05T21:47:46.204Z,100980.58
2018-10-05T21:50:14.317Z,100981.21
2018-10-05T21:52:42.449Z,100980.58
2018-10-05T21:55:10.617Z,100975.30
2018-10-05T21:57:38.732Z,100974.91
2018-10-05T22:00:06.820Z,100969.75
2018-10-05T22:02:35.665Z,100968.95
2018-10-05T22:05:04.545Z,100959.38
2018-10-05T22:07:32.653Z,100956.59
2018-10-05T22:10:00.905Z,100954.00
2018-10-05T22:12:29.496Z,100954.38
2018-10-05T22:14:57.593Z,100951.11
2018-10-05T22:17:25.784Z,100950.81
2018-10-05T22:19:53.953Z,100947.46
2018-10-05T22:22:22.011Z,100941.92
2018-10-05T22:24:50.121Z,100945.39
2018-10-05T22:27:18.241Z,100941.48
2018-10-05T22:29:46.335Z,100944.81
2018-10-05T22:32:14.453Z,100944.16
2018-10-05T22:34:42.600Z,100940.63
2018-10-05T22:37:10.716Z,100939.41
2018-10-05T22:39:38.829Z,100941.34
2018-10-05T22:42:06.940Z,100936.34
2018-10-05T22:44:35.101Z,100934.88
2018-10-05T22:47:03.425Z,100934.41
2018-10-05T22:49:31.509Z,100929.09
2018-10-05T22:51:59.665Z,100921.92
2018-10-05T22:54:27.776Z,100925.63
2018-10-05T22:56:55.865Z,100927.70
2018-10-05T22:59:23.981Z,100923.91
2018-10-05T23:01:52.116Z,100921.16
2018-10-05T23:04:20.210Z,100924.23
2018-10-05T23:06:48.325Z,100920.92
2018-10-05T23:09:16.456Z,100917.16
2018-10-05T23:11:44.577Z,100913.46
2018-10-05T23:14:13.088Z,100912.70
2018-10-05T23:16:41.224Z,100905.23
2018-10-05T23:19:09.332Z,100907.46
2018-10-05T23:21:37.475Z,100905.55
2018-10-05T23:24:05.587Z,100903.85
2018-10-05T23:26:33.728Z,100894.34
2018-10-05T23:29:01.818Z,100890.77
2018-10-05T23:31:29.947Z,100892.55
2018-10-05T23:33:58.077Z,100895.16
2018-10-05T23:36:26.188Z,100887.88
2018-10-05T23:38:54.300Z,100884.04
2018-10-05T23:41:22.463Z,100885.81
2018-10-05T23:43:50.564Z,100881.82
2018-10-05T23:46:18.717Z,100878.36
2018-10-05T23:48:46.837Z,100881.50
2018-10-05T23:51:14.941Z,100879.42
2018-10-05T23:53:43.341Z,100868.05
2018-10-05T23:56:11.436Z,100869.36
2018-10-05T23:58:39.570Z,100872.89
